sensor_id;sensor_type;location;lat;lon;timestamp;temperature;humidity
4425;DHT22;2225;53.568;13.266;2022-10-22T00:00:06;17.10;96.30
4425;DHT22;2225;53.568;13.266;2022-10-22T00:02:34;17.10;96.50
4425;DHT22;2225;53.568;13.266;2022-10-22T00:05:01;17.10;96.40
4425;DHT22;2225;53.568;13.266;2022-10-22T00:07:29;17.20;96.40
4425;DHT22;2225;53.568;13.266;2022-10-22T00:09:55;17.20;96.40
4425;DHT22;2225;53.568;13.266;2022-10-22T00:12:23;17.20;96.30
4425;DHT22;2225;53.568;13.266;2022-10-22T00:14:51;17.20;96.60
4425;DHT22;2225;53.568;13.266;2022-10-22T00:17:18;17.30;96.30
4425;DHT22;2225;53.568;13.266;2022-10-22T00:19:45;17.30;96.30
4425;DHT22;2225;53.568;13.266;2022-10-22T00:22:12;17.30;96.20
4425;DHT22;2225;53.568;13.266;2022-10-22T00:24:39;17.40;96.20
4425;DHT22;2225;53.568;13.266;2022-10-22T00:27:08;17.40;96.20
4425;DHT22;2225;53.568;13.266;2022-10-22T00:29:36;17.40;96.20
4425;DHT22;2225;53.568;13.266;2022-10-22T00:32:04;17.40;96.10
4425;DHT22;2225;53.568;13.266;2022-10-22T00:34:32;17.40;96.10
4425;DHT22;2225;53.568;13.266;2022-10-22T00:36:59;17.40;96.10
4425;DHT22;2225;53.568;13.266;2022-10-22T00:39:27;17.40;96.10
4425;DHT22;2225;53.568;13.266;2022-10-22T00:41:55;17.40;96.10
4425;DHT22;2225;53.568;13.266;2022-10-22T00:44:59;17.40;96.00
4425;DHT22;2225;53.568;13.266;2022-10-22T00:47:34;17.50;96.20
4425;DHT22;2225;53.568;13.266;2022-10-22T00:50:03;17.50;96.00
4425;DHT22;2225;53.568;13.266;2022-10-22T00:52:33;17.50;96.00
4425;DHT22;2225;53.568;13.266;2022-10-22T00:55:00;17.50;96.10
4425;DHT22;2225;53.568;13.266;2022-10-22T00:57:27;17.40;96.00
4425;DHT22;2225;53.568;13.266;2022-10-22T00:59:55;17.40;96.00
4425;DHT22;2225;53.568;13.266;2022-10-22T01:02:23;17.40;96.00
4425;DHT22;2225;53.568;13.266;2022-10-22T01:04:50;17.50;96.10
4425;DHT22;2225;53.568;13.266;2022-10-22T01:07:20;17.50;96.10
4425;DHT22;2225;53.568;13.266;2022-10-22T01:10:02;17.50;96.10
4425;DHT22;2225;53.568;13.266;2022-10-22T01:13:04;17.50;96.20
4425;DHT22;2225;53.568;13.266;2022-10-22T01:15:59;17.50;96.20
4425;DHT22;2225;53.568;13.266;2022-10-22T01:19:01;17.50;96.30
4425;DHT22;2225;53.568;13.266;2022-10-22T01:21:58;17.50;96.20
4425;DHT22;2225;53.568;13.266;2022-10-22T01:24:56;17.50;96.10
4425;DHT22;2225;53.568;13.266;2022-10-22T01:28:14;17.50;96.00
4425;DHT22;2225;53.568;13.266;2022-10-22T01:30:51;17.50;96.00
4425;DHT22;2225;53.568;13.266;2022-10-22T01:33:21;17.50;95.80
4425;DHT22;2225;53.568;13.266;2022-10-22T01:35:49;17.50;95.70
4425;DHT22;2225;53.568;13.266;2022-10-22T01:38:20;17.50;95.70
4425;DHT22;2225;53.568;13.266;2022-10-22T01:40:49;17.40;96.00
4425;DHT22;2225;53.568;13.266;2022-10-22T01:43:16;17.40;95.60
4425;DHT22;2225;53.568;13.266;2022-10-22T01:45:48;17.40;95.60
4425;DHT22;2225;53.568;13.266;2022-10-22T01:48:32;17.40;95.70
4425;DHT22;2225;53.568;13.266;2022-10-22T01:55:23;17.30;96.00
4425;DHT22;2225;53.568;13.266;2022-10-22T02:00:29;17.30;96.20
4425;DHT22;2225;53.568;13.266;2022-10-22T02:03:01;17.30;95.90
4425;DHT22;2225;53.568;13.266;2022-10-22T02:05:35;17.30;96.00
4425;DHT22;2225;53.568;13.266;2022-10-22T02:08:12;17.30;96.10
4425;DHT22;2225;53.568;13.266;2022-10-22T02:10:44;17.30;96.10
4425;DHT22;2225;53.568;13.266;2022-10-22T02:13:16;17.30;96.20
4425;DHT22;2225;53.568;13.266;2022-10-22T02:15:46;17.30;96.40
4425;DHT22;2225;53.568;13.266;2022-10-22T02:18:15;17.20;96.40
4425;DHT22;2225;53.568;13.266;2022-10-22T02:20:44;17.30;96.50
4425;DHT22;2225;53.568;13.266;2022-10-22T02:23:11;17.30;96.50
4425;DHT22;2225;53.568;13.266;2022-10-22T02:25:41;17.30;96.60
4425;DHT22;2225;53.568;13.266;2022-10-22T02:28:18;17.30;96.70
4425;DHT22;2225;53.568;13.266;2022-10-22T02:30:53;17.30;96.80
4425;DHT22;2225;53.568;13.266;2022-10-22T02:33:36;17.30;96.80
4425;DHT22;2225;53.568;13.266;2022-10-22T02:36:05;17.30;96.80
4425;DHT22;2225;53.568;13.266;2022-10-22T02:38:33;17.30;96.80
4425;DHT22;2225;53.568;13.266;2022-10-22T02:41:02;17.30;96.80
4425;DHT22;2225;53.568;13.266;2022-10-22T02:43:29;17.40;96.80
4425;DHT22;2225;53.568;13.266;2022-10-22T02:45:56;17.40;96.90
4425;DHT22;2225;53.568;13.266;2022-10-22T02:48:22;17.40;96.90
4425;DHT22;2225;53.568;13.266;2022-10-22T02:50:49;17.50;97.00
4425;DHT22;2225;53.568;13.266;2022-10-22T02:53:16;17.40;96.90
4425;DHT22;2225;53.568;13.266;2022-10-22T02:55:43;17.40;96.90
4425;DHT22;2225;53.568;13.266;2022-10-22T02:58:10;17.50;96.90
4425;DHT22;2225;53.568;13.266;2022-10-22T03:00:39;17.50;96.90
4425;DHT22;2225;53.568;13.266;2022-10-22T03:03:06;17.50;96.80
4425;DHT22;2225;53.568;13.266;2022-10-22T03:05:33;17.50;96.80
4425;DHT22;2225;53.568;13.266;2022-10-22T03:08:00;17.50;96.80
4425;DHT22;2225;53.568;13.266;2022-10-22T03:10:27;17.50;96.70
4425;DHT22;2225;53.568;13.266;2022-10-22T03:12:54;17.50;96.70
4425;DHT22;2225;53.568;13.266;2022-10-22T03:15:21;17.60;96.70
4425;DHT22;2225;53.568;13.266;2022-10-22T03:17:48;17.60;96.70
4425;DHT22;2225;53.568;13.266;2022-10-22T03:20:15;17.60;96.70
4425;DHT22;2225;53.568;13.266;2022-10-22T03:22:42;17.60;96.70
4425;DHT22;2225;53.568;13.266;2022-10-22T03:25:13;17.60;96.60
4425;DHT22;2225;53.568;13.266;2022-10-22T03:27:42;17.60;96.60
4425;DHT22;2225;53.568;13.266;2022-10-22T03:30:10;17.60;96.60
4425;DHT22;2225;53.568;13.266;2022-10-22T03:32:37;17.60;96.60
4425;DHT22;2225;53.568;13.266;2022-10-22T03:35:04;17.60;96.50
4425;DHT22;2225;53.568;13.266;2022-10-22T03:37:32;17.60;96.50
4425;DHT22;2225;53.568;13.266;2022-10-22T03:40:00;17.60;96.50
4425;DHT22;2225;53.568;13.266;2022-10-22T03:42:28;17.60;96.50
4425;DHT22;2225;53.568;13.266;2022-10-22T03:44:55;17.60;96.50
4425;DHT22;2225;53.568;13.266;2022-10-22T03:47:22;17.60;96.40
4425;DHT22;2225;53.568;13.266;2022-10-22T03:49:50;17.70;96.50
4425;DHT22;2225;53.568;13.266;2022-10-22T03:52:17;17.70;96.50
4425;DHT22;2225;53.568;13.266;2022-10-22T03:54:44;17.70;96.50
4425;DHT22;2225;53.568;13.266;2022-10-22T03:57:12;17.70;96.40
4425;DHT22;2225;53.568;13.266;2022-10-22T03:59:43;17.70;96.40
4425;DHT22;2225;53.568;13.266;2022-10-22T04:02:12;17.70;96.40
4425;DHT22;2225;53.568;13.266;2022-10-22T04:04:39;17.70;96.40
4425;DHT22;2225;53.568;13.266;2022-10-22T04:07:06;17.70;96.30
4425;DHT22;2225;53.568;13.266;2022-10-22T04:09:34;17.70;96.30
4425;DHT22;2225;53.568;13.266;2022-10-22T04:12:01;17.70;96.30
4425;DHT22;2225;53.568;13.266;2022-10-22T04:14:28;17.70;96.30
4425;DHT22;2225;53.568;13.266;2022-10-22T04:16:55;17.70;96.30
4425;DHT22;2225;53.568;13.266;2022-10-22T04:19:22;17.70;96.30
4425;DHT22;2225;53.568;13.266;2022-10-22T04:21:49;17.70;96.40
4425;DHT22;2225;53.568;13.266;2022-10-22T04:24:16;17.70;96.40
4425;DHT22;2225;53.568;13.266;2022-10-22T04:26:43;17.70;96.40
4425;DHT22;2225;53.568;13.266;2022-10-22T04:29:10;17.70;96.40
4425;DHT22;2225;53.568;13.266;2022-10-22T04:31:41;17.80;96.40
4425;DHT22;2225;53.568;13.266;2022-10-22T04:34:08;17.70;96.40
4425;DHT22;2225;53.568;13.266;2022-10-22T04:36:35;17.70;96.40
4425;DHT22;2225;53.568;13.266;2022-10-22T04:39:03;17.70;96.40
4425;DHT22;2225;53.568;13.266;2022-10-22T04:41:33;17.70;96.50
4425;DHT22;2225;53.568;13.266;2022-10-22T04:44:02;17.70;96.60
4425;DHT22;2225;53.568;13.266;2022-10-22T04:46:31;17.70;96.60
4425;DHT22;2225;53.568;13.266;2022-10-22T04:49:00;17.70;96.70
4425;DHT22;2225;53.568;13.266;2022-10-22T04:51:29;17.70;96.70
4425;DHT22;2225;53.568;13.266;2022-10-22T04:53:56;17.70;96.70
4425;DHT22;2225;53.568;13.266;2022-10-22T04:56:25;17.70;96.80
4425;DHT22;2225;53.568;13.266;2022-10-22T04:58:56;17.70;96.80
4425;DHT22;2225;53.568;13.266;2022-10-22T05:01:31;17.70;96.80
4425;DHT22;2225;53.568;13.266;2022-10-22T05:04:06;17.70;96.80
4425;DHT22;2225;53.568;13.266;2022-10-22T05:06:35;17.70;96.80
4425;DHT22;2225;53.568;13.266;2022-10-22T05:09:05;17.70;96.80
4425;DHT22;2225;53.568;13.266;2022-10-22T05:11:35;17.70;96.80
4425;DHT22;2225;53.568;13.266;2022-10-22T05:14:05;17.70;96.80
4425;DHT22;2225;53.568;13.266;2022-10-22T05:16:33;17.70;96.80
4425;DHT22;2225;53.568;13.266;2022-10-22T05:19:01;17.70;96.80
4425;DHT22;2225;53.568;13.266;2022-10-22T05:21:29;17.70;96.80
4425;DHT22;2225;53.568;13.266;2022-10-22T05:23:57;17.70;96.80
4425;DHT22;2225;53.568;13.266;2022-10-22T05:26:28;17.70;96.80
4425;DHT22;2225;53.568;13.266;2022-10-22T05:28:55;17.70;96.70
4425;DHT22;2225;53.568;13.266;2022-10-22T05:31:22;17.70;96.70
4425;DHT22;2225;53.568;13.266;2022-10-22T05:33:49;17.60;96.70
4425;DHT22;2225;53.568;13.266;2022-10-22T05:36:22;17.60;96.70
4425;DHT22;2225;53.568;13.266;2022-10-22T05:38:49;17.70;96.70
4425;DHT22;2225;53.568;13.266;2022-10-22T05:41:19;17.60;96.60
4425;DHT22;2225;53.568;13.266;2022-10-22T05:43:47;17.60;96.60
4425;DHT22;2225;53.568;13.266;2022-10-22T05:46:19;17.60;96.60
4425;DHT22;2225;53.568;13.266;2022-10-22T05:48:57;17.60;96.70
4425;DHT22;2225;53.568;13.266;2022-10-22T05:51:27;17.60;96.80
4425;DHT22;2225;53.568;13.266;2022-10-22T05:53:57;17.60;96.80
4425;DHT22;2225;53.568;13.266;2022-10-22T05:56:26;17.60;96.90
4425;DHT22;2225;53.568;13.266;2022-10-22T05:58:53;17.60;97.00
4425;DHT22;2225;53.568;13.266;2022-10-22T06:01:26;17.60;97.00
4425;DHT22;2225;53.568;13.266;2022-10-22T06:03:55;17.60;97.20
4425;DHT22;2225;53.568;13.266;2022-10-22T06:06:37;17.60;97.20
4425;DHT22;2225;53.568;13.266;2022-10-22T06:09:25;17.60;97.20
4425;DHT22;2225;53.568;13.266;2022-10-22T06:11:57;17.60;97.30
4425;DHT22;2225;53.568;13.266;2022-10-22T06:14:25;17.60;97.20
4425;DHT22;2225;53.568;13.266;2022-10-22T06:16:53;17.60;97.20
4425;DHT22;2225;53.568;13.266;2022-10-22T06:19:21;17.70;97.30
4425;DHT22;2225;53.568;13.266;2022-10-22T06:21:48;17.60;97.40
4425;DHT22;2225;53.568;13.266;2022-10-22T06:24:15;17.70;97.40
4425;DHT22;2225;53.568;13.266;2022-10-22T06:26:42;17.70;97.50
4425;DHT22;2225;53.568;13.266;2022-10-22T06:29:09;17.70;97.50
4425;DHT22;2225;53.568;13.266;2022-10-22T06:31:36;17.70;97.80
4425;DHT22;2225;53.568;13.266;2022-10-22T06:34:05;17.70;97.50
4425;DHT22;2225;53.568;13.266;2022-10-22T06:36:33;17.70;97.60
4425;DHT22;2225;53.568;13.266;2022-10-22T06:39:00;17.70;97.60
4425;DHT22;2225;53.568;13.266;2022-10-22T06:41:27;17.70;97.60
4425;DHT22;2225;53.568;13.266;2022-10-22T06:43:55;17.70;97.70
4425;DHT22;2225;53.568;13.266;2022-10-22T06:46:24;17.70;97.70
4425;DHT22;2225;53.568;13.266;2022-10-22T06:48:57;17.70;97.80
4425;DHT22;2225;53.568;13.266;2022-10-22T06:51:26;17.70;97.80
4425;DHT22;2225;53.568;13.266;2022-10-22T06:53:54;17.70;97.80
4425;DHT22;2225;53.568;13.266;2022-10-22T06:56:25;17.80;97.80
4425;DHT22;2225;53.568;13.266;2022-10-22T06:58:54;17.80;97.80
4425;DHT22;2225;53.568;13.266;2022-10-22T07:01:24;17.80;97.80
4425;DHT22;2225;53.568;13.266;2022-10-22T07:03:54;17.90;97.90
4425;DHT22;2225;53.568;13.266;2022-10-22T07:06:22;17.90;97.80
4425;DHT22;2225;53.568;13.266;2022-10-22T07:08:49;17.90;97.80
4425;DHT22;2225;53.568;13.266;2022-10-22T07:11:21;18.00;97.80
4425;DHT22;2225;53.568;13.266;2022-10-22T07:13:50;18.00;97.80
4425;DHT22;2225;53.568;13.266;2022-10-22T07:16:17;18.00;97.70
4425;DHT22;2225;53.568;13.266;2022-10-22T07:18:44;18.00;97.70
4425;DHT22;2225;53.568;13.266;2022-10-22T07:21:13;18.00;97.60
4425;DHT22;2225;53.568;13.266;2022-10-22T07:23:42;18.00;97.60
4425;DHT22;2225;53.568;13.266;2022-10-22T07:26:15;18.00;97.60
4425;DHT22;2225;53.568;13.266;2022-10-22T07:28:42;18.10;97.60
4425;DHT22;2225;53.568;13.266;2022-10-22T07:31:11;18.10;97.60
4425;DHT22;2225;53.568;13.266;2022-10-22T07:33:39;18.10;97.60
4425;DHT22;2225;53.568;13.266;2022-10-22T07:36:09;18.10;97.60
4425;DHT22;2225;53.568;13.266;2022-10-22T07:38:47;18.10;97.60
4425;DHT22;2225;53.568;13.266;2022-10-22T07:41:16;18.20;97.70
4425;DHT22;2225;53.568;13.266;2022-10-22T07:43:43;18.10;97.60
4425;DHT22;2225;53.568;13.266;2022-10-22T07:46:10;18.20;97.50
4425;DHT22;2225;53.568;13.266;2022-10-22T07:48:37;18.20;97.50
4425;DHT22;2225;53.568;13.266;2022-10-22T07:51:04;18.20;97.50
4425;DHT22;2225;53.568;13.266;2022-10-22T07:53:31;18.20;97.50
4425;DHT22;2225;53.568;13.266;2022-10-22T07:55:59;18.20;97.50
4425;DHT22;2225;53.568;13.266;2022-10-22T07:58:26;18.20;97.50
4425;DHT22;2225;53.568;13.266;2022-10-22T08:00:57;18.30;97.50
4425;DHT22;2225;53.568;13.266;2022-10-22T08:03:27;18.20;97.50
4425;DHT22;2225;53.568;13.266;2022-10-22T08:05:54;18.30;97.50
4425;DHT22;2225;53.568;13.266;2022-10-22T08:08:21;18.30;97.50
4425;DHT22;2225;53.568;13.266;2022-10-22T08:10:54;18.30;97.50
4425;DHT22;2225;53.568;13.266;2022-10-22T08:13:24;18.30;97.50
4425;DHT22;2225;53.568;13.266;2022-10-22T08:15:51;18.40;97.60
4425;DHT22;2225;53.568;13.266;2022-10-22T08:18:23;18.40;97.50
4425;DHT22;2225;53.568;13.266;2022-10-22T08:20:50;18.40;97.50
4425;DHT22;2225;53.568;13.266;2022-10-22T08:23:17;18.40;97.60
4425;DHT22;2225;53.568;13.266;2022-10-22T08:25:47;18.50;97.60
4425;DHT22;2225;53.568;13.266;2022-10-22T08:28:14;18.50;97.60
4425;DHT22;2225;53.568;13.266;2022-10-22T08:30:47;18.50;97.60
4425;DHT22;2225;53.568;13.266;2022-10-22T08:33:14;18.50;97.60
4425;DHT22;2225;53.568;13.266;2022-10-22T08:35:41;18.60;97.60
4425;DHT22;2225;53.568;13.266;2022-10-22T08:38:08;18.60;97.60
4425;DHT22;2225;53.568;13.266;2022-10-22T08:40:37;18.60;97.50
4425;DHT22;2225;53.568;13.266;2022-10-22T08:46:46;18.60;97.60
4425;DHT22;2225;53.568;13.266;2022-10-22T08:49:33;18.70;97.60
4425;DHT22;2225;53.568;13.266;2022-10-22T08:52:13;18.70;97.70
4425;DHT22;2225;53.568;13.266;2022-10-22T08:57:51;18.70;97.70
4425;DHT22;2225;53.568;13.266;2022-10-22T09:00:42;18.80;97.80
4425;DHT22;2225;53.568;13.266;2022-10-22T09:03:47;18.80;97.80
4425;DHT22;2225;53.568;13.266;2022-10-22T09:06:24;18.80;97.90
4425;DHT22;2225;53.568;13.266;2022-10-22T09:08:53;18.90;97.90
4425;DHT22;2225;53.568;13.266;2022-10-22T09:11:43;19.00;97.90
4425;DHT22;2225;53.568;13.266;2022-10-22T09:14:21;19.10;97.80
4425;DHT22;2225;53.568;13.266;2022-10-22T09:20:23;19.10;97.80
4425;DHT22;2225;53.568;13.266;2022-10-22T09:23:19;19.10;97.70
4425;DHT22;2225;53.568;13.266;2022-10-22T09:26:13;19.20;97.70
4425;DHT22;2225;53.568;13.266;2022-10-22T09:28:41;19.20;97.70
4425;DHT22;2225;53.568;13.266;2022-10-22T09:31:13;19.20;97.60
4425;DHT22;2225;53.568;13.266;2022-10-22T09:33:43;19.30;97.50
4425;DHT22;2225;53.568;13.266;2022-10-22T09:36:21;19.30;97.50
4425;DHT22;2225;53.568;13.266;2022-10-22T09:38:51;19.30;97.60
4425;DHT22;2225;53.568;13.266;2022-10-22T09:41:21;19.40;97.60
4425;DHT22;2225;53.568;13.266;2022-10-22T09:43:50;19.40;97.50
4425;DHT22;2225;53.568;13.266;2022-10-22T09:46:20;19.40;97.60
4425;DHT22;2225;53.568;13.266;2022-10-22T09:51:41;19.50;97.50
4425;DHT22;2225;53.568;13.266;2022-10-22T09:54:25;19.60;97.40
4425;DHT22;2225;53.568;13.266;2022-10-22T09:57:15;19.70;97.50
4425;DHT22;2225;53.568;13.266;2022-10-22T09:59:47;19.80;97.30
4425;DHT22;2225;53.568;13.266;2022-10-22T10:02:20;19.90;97.40
4425;DHT22;2225;53.568;13.266;2022-10-22T10:05:05;20.00;97.40
4425;DHT22;2225;53.568;13.266;2022-10-22T10:07:34;20.10;97.40
4425;DHT22;2225;53.568;13.266;2022-10-22T10:10:05;20.10;97.10
4425;DHT22;2225;53.568;13.266;2022-10-22T10:12:56;20.20;97.10
4425;DHT22;2225;53.568;13.266;2022-10-22T10:16:00;20.30;96.80
4425;DHT22;2225;53.568;13.266;2022-10-22T10:18:52;20.40;96.50
4425;DHT22;2225;53.568;13.266;2022-10-22T10:27:43;20.60;96.00
4425;DHT22;2225;53.568;13.266;2022-10-22T10:30:32;20.60;96.00
4425;DHT22;2225;53.568;13.266;2022-10-22T10:45:19;20.80;95.50
4425;DHT22;2225;53.568;13.266;2022-10-22T10:48:18;20.80;95.50
4425;DHT22;2225;53.568;13.266;2022-10-22T10:51:17;20.90;95.30
4425;DHT22;2225;53.568;13.266;2022-10-22T11:00:13;21.00;94.70
4425;DHT22;2225;53.568;13.266;2022-10-22T11:05:55;21.10;94.80
4425;DHT22;2225;53.568;13.266;2022-10-22T11:11:10;21.20;94.50
4425;DHT22;2225;53.568;13.266;2022-10-22T11:16:19;21.20;94.30
4425;DHT22;2225;53.568;13.266;2022-10-22T11:21:38;21.30;93.80
4425;DHT22;2225;53.568;13.266;2022-10-22T11:30:19;21.40;93.90
4425;DHT22;2225;53.568;13.266;2022-10-22T11:33:02;21.40;94.00
4425;DHT22;2225;53.568;13.266;2022-10-22T11:35:38;21.50;93.60
4425;DHT22;2225;53.568;13.266;2022-10-22T11:38:11;21.50;93.90
4425;DHT22;2225;53.568;13.266;2022-10-22T11:40:51;21.60;93.90
4425;DHT22;2225;53.568;13.266;2022-10-22T11:43:35;21.60;93.50
4425;DHT22;2225;53.568;13.266;2022-10-22T11:49:18;21.80;93.60
4425;DHT22;2225;53.568;13.266;2022-10-22T11:51:48;21.90;92.50
4425;DHT22;2225;53.568;13.266;2022-10-22T11:59:51;22.00;91.80
4425;DHT22;2225;53.568;13.266;2022-10-22T12:02:40;22.00;91.80
4425;DHT22;2225;53.568;13.266;2022-10-22T12:08:00;22.00;91.60
4425;DHT22;2225;53.568;13.266;2022-10-22T12:10:57;22.10;91.70
4425;DHT22;2225;53.568;13.266;2022-10-22T12:13:54;22.10;91.60
4425;DHT22;2225;53.568;13.266;2022-10-22T12:16:44;22.10;91.10
4425;DHT22;2225;53.568;13.266;2022-10-22T12:21:55;22.20;91.60
4425;DHT22;2225;53.568;13.266;2022-10-22T12:24:39;22.20;91.60
4425;DHT22;2225;53.568;13.266;2022-10-22T12:27:20;22.20;91.60
4425;DHT22;2225;53.568;13.266;2022-10-22T12:29:59;22.20;91.40
4425;DHT22;2225;53.568;13.266;2022-10-22T12:32:34;22.20;91.30
4425;DHT22;2225;53.568;13.266;2022-10-22T12:35:07;22.20;91.40
4425;DHT22;2225;53.568;13.266;2022-10-22T12:37:41;22.20;91.30
4425;DHT22;2225;53.568;13.266;2022-10-22T12:40:23;22.20;91.40
4425;DHT22;2225;53.568;13.266;2022-10-22T12:42:57;22.20;91.60
4425;DHT22;2225;53.568;13.266;2022-10-22T12:45:29;22.20;91.60
4425;DHT22;2225;53.568;13.266;2022-10-22T12:48:05;22.30;91.70
4425;DHT22;2225;53.568;13.266;2022-10-22T12:50:41;22.30;91.60
4425;DHT22;2225;53.568;13.266;2022-10-22T12:53:32;22.30;91.50
4425;DHT22;2225;53.568;13.266;2022-10-22T12:56:06;22.30;91.70
4425;DHT22;2225;53.568;13.266;2022-10-22T12:58:40;22.40;91.70
4425;DHT22;2225;53.568;13.266;2022-10-22T13:01:11;22.40;91.50
4425;DHT22;2225;53.568;13.266;2022-10-22T13:03:48;22.40;91.60
4425;DHT22;2225;53.568;13.266;2022-10-22T13:11:50;22.40;91.50
4425;DHT22;2225;53.568;13.266;2022-10-22T13:14:31;22.40;91.60
4425;DHT22;2225;53.568;13.266;2022-10-22T13:22:32;22.40;91.60
4425;DHT22;2225;53.568;13.266;2022-10-22T13:25:22;22.40;91.50
4425;DHT22;2225;53.568;13.266;2022-10-22T13:27:57;22.40;91.50
4425;DHT22;2225;53.568;13.266;2022-10-22T13:30:31;22.40;91.60
4425;DHT22;2225;53.568;13.266;2022-10-22T13:33:02;22.40;91.70
4425;DHT22;2225;53.568;13.266;2022-10-22T13:35:33;22.40;91.60
4425;DHT22;2225;53.568;13.266;2022-10-22T13:38:00;22.40;91.60
4425;DHT22;2225;53.568;13.266;2022-10-22T13:40:27;22.40;91.60
4425;DHT22;2225;53.568;13.266;2022-10-22T13:42:54;22.40;91.60
4425;DHT22;2225;53.568;13.266;2022-10-22T13:45:21;22.40;91.60
4425;DHT22;2225;53.568;13.266;2022-10-22T13:47:51;22.40;91.60
4425;DHT22;2225;53.568;13.266;2022-10-22T13:50:19;22.40;91.70
4425;DHT22;2225;53.568;13.266;2022-10-22T13:52:52;22.40;91.80
4425;DHT22;2225;53.568;13.266;2022-10-22T13:55:26;22.40;91.60
4425;DHT22;2225;53.568;13.266;2022-10-22T13:58:05;22.30;91.70
4425;DHT22;2225;53.568;13.266;2022-10-22T14:00:41;22.30;91.60
4425;DHT22;2225;53.568;13.266;2022-10-22T14:03:12;22.40;91.70
4425;DHT22;2225;53.568;13.266;2022-10-22T14:05:41;22.30;91.60
4425;DHT22;2225;53.568;13.266;2022-10-22T14:08:14;22.30;91.60
4425;DHT22;2225;53.568;13.266;2022-10-22T14:10:43;22.30;91.40
4425;DHT22;2225;53.568;13.266;2022-10-22T14:13:14;22.30;91.50
4425;DHT22;2225;53.568;13.266;2022-10-22T14:15:44;22.30;91.40
4425;DHT22;2225;53.568;13.266;2022-10-22T14:18:17;22.30;91.40
4425;DHT22;2225;53.568;13.266;2022-10-22T14:20:59;22.30;91.20
4425;DHT22;2225;53.568;13.266;2022-10-22T14:23:31;22.30;91.00
4425;DHT22;2225;53.568;13.266;2022-10-22T14:26:00;22.30;91.20
4425;DHT22;2225;53.568;13.266;2022-10-22T14:28:27;22.30;91.10
4425;DHT22;2225;53.568;13.266;2022-10-22T14:30:56;22.30;90.90
4425;DHT22;2225;53.568;13.266;2022-10-22T14:33:29;22.30;90.90
4425;DHT22;2225;53.568;13.266;2022-10-22T14:35:59;22.30;91.30
4425;DHT22;2225;53.568;13.266;2022-10-22T14:38:26;22.30;91.10
4425;DHT22;2225;53.568;13.266;2022-10-22T14:40:54;22.30;91.00
4425;DHT22;2225;53.568;13.266;2022-10-22T14:43:26;22.20;90.90
4425;DHT22;2225;53.568;13.266;2022-10-22T14:45:54;22.20;90.80
4425;DHT22;2225;53.568;13.266;2022-10-22T14:48:22;22.20;91.10
4425;DHT22;2225;53.568;13.266;2022-10-22T14:50:49;22.20;90.80
4425;DHT22;2225;53.568;13.266;2022-10-22T14:53:16;22.20;90.90
4425;DHT22;2225;53.568;13.266;2022-10-22T14:55:44;22.20;90.90
4425;DHT22;2225;53.568;13.266;2022-10-22T14:58:12;22.20;91.00
4425;DHT22;2225;53.568;13.266;2022-10-22T15:00:41;22.20;91.00
4425;DHT22;2225;53.568;13.266;2022-10-22T15:03:09;22.20;91.00
4425;DHT22;2225;53.568;13.266;2022-10-22T15:05:40;22.20;90.90
4425;DHT22;2225;53.568;13.266;2022-10-22T15:08:11;22.20;90.90
4425;DHT22;2225;53.568;13.266;2022-10-22T15:10:39;22.20;90.90
4425;DHT22;2225;53.568;13.266;2022-10-22T15:13:07;22.20;90.90
4425;DHT22;2225;53.568;13.266;2022-10-22T15:15:34;22.20;90.90
4425;DHT22;2225;53.568;13.266;2022-10-22T15:18:05;22.20;90.90
4425;DHT22;2225;53.568;13.266;2022-10-22T15:20:32;22.20;91.00
4425;DHT22;2225;53.568;13.266;2022-10-22T15:22:59;22.20;91.00
4425;DHT22;2225;53.568;13.266;2022-10-22T15:25:26;22.20;90.90
4425;DHT22;2225;53.568;13.266;2022-10-22T15:27:54;22.10;90.90
4425;DHT22;2225;53.568;13.266;2022-10-22T15:30:30;22.10;90.90
4425;DHT22;2225;53.568;13.266;2022-10-22T15:32:57;22.10;90.90
4425;DHT22;2225;53.568;13.266;2022-10-22T15:35:26;22.00;90.90
4425;DHT22;2225;53.568;13.266;2022-10-22T15:37:53;22.00;90.80
4425;DHT22;2225;53.568;13.266;2022-10-22T15:40:20;21.90;90.90
4425;DHT22;2225;53.568;13.266;2022-10-22T15:42:47;21.90;90.90
4425;DHT22;2225;53.568;13.266;2022-10-22T15:45:14;21.80;90.90
4425;DHT22;2225;53.568;13.266;2022-10-22T15:47:46;21.70;91.00
4425;DHT22;2225;53.568;13.266;2022-10-22T15:50:14;21.70;91.10
4425;DHT22;2225;53.568;13.266;2022-10-22T15:52:41;21.60;91.10
4425;DHT22;2225;53.568;13.266;2022-10-22T15:55:08;21.50;91.10
4425;DHT22;2225;53.568;13.266;2022-10-22T15:57:37;21.50;91.20
4425;DHT22;2225;53.568;13.266;2022-10-22T16:00:05;21.40;91.30
4425;DHT22;2225;53.568;13.266;2022-10-22T16:02:37;21.30;91.30
4425;DHT22;2225;53.568;13.266;2022-10-22T16:05:05;21.20;91.30
4425;DHT22;2225;53.568;13.266;2022-10-22T16:07:32;21.20;91.40
4425;DHT22;2225;53.568;13.266;2022-10-22T16:09:59;21.10;91.50
4425;DHT22;2225;53.568;13.266;2022-10-22T16:12:27;21.00;91.60
4425;DHT22;2225;53.568;13.266;2022-10-22T16:14:54;20.90;91.60
4425;DHT22;2225;53.568;13.266;2022-10-22T16:17:20;20.90;91.70
4425;DHT22;2225;53.568;13.266;2022-10-22T16:19:47;20.80;91.80
4425;DHT22;2225;53.568;13.266;2022-10-22T16:22:14;20.70;91.80
4425;DHT22;2225;53.568;13.266;2022-10-22T16:24:41;20.60;91.90
4425;DHT22;2225;53.568;13.266;2022-10-22T16:27:08;20.60;92.00
4425;DHT22;2225;53.568;13.266;2022-10-22T16:29:37;20.60;92.10
4425;DHT22;2225;53.568;13.266;2022-10-22T16:32:04;20.50;92.20
4425;DHT22;2225;53.568;13.266;2022-10-22T16:34:32;20.40;92.20
4425;DHT22;2225;53.568;13.266;2022-10-22T16:36:58;20.40;92.30
4425;DHT22;2225;53.568;13.266;2022-10-22T16:39:25;20.30;92.40
4425;DHT22;2225;53.568;13.266;2022-10-22T16:41:52;20.30;92.40
4425;DHT22;2225;53.568;13.266;2022-10-22T16:44:19;20.30;92.50
4425;DHT22;2225;53.568;13.266;2022-10-22T16:46:46;20.20;92.50
4425;DHT22;2225;53.568;13.266;2022-10-22T16:49:13;20.20;92.50
4425;DHT22;2225;53.568;13.266;2022-10-22T16:51:40;20.20;92.60
4425;DHT22;2225;53.568;13.266;2022-10-22T16:54:07;20.10;92.60
4425;DHT22;2225;53.568;13.266;2022-10-22T16:56:38;20.10;92.60
4425;DHT22;2225;53.568;13.266;2022-10-22T16:59:05;20.00;92.60
4425;DHT22;2225;53.568;13.266;2022-10-22T17:01:32;20.00;92.60
4425;DHT22;2225;53.568;13.266;2022-10-22T17:04:06;20.00;92.60
4425;DHT22;2225;53.568;13.266;2022-10-22T17:06:32;19.90;92.60
4425;DHT22;2225;53.568;13.266;2022-10-22T17:08:59;19.80;92.60
4425;DHT22;2225;53.568;13.266;2022-10-22T17:11:26;19.80;92.70
4425;DHT22;2225;53.568;13.266;2022-10-22T17:14:00;19.80;92.70
4425;DHT22;2225;53.568;13.266;2022-10-22T17:16:27;19.70;92.80
4425;DHT22;2225;53.568;13.266;2022-10-22T17:18:55;19.70;92.80
4425;DHT22;2225;53.568;13.266;2022-10-22T17:21:23;19.60;92.80
4425;DHT22;2225;53.568;13.266;2022-10-22T17:23:54;19.60;92.80
4425;DHT22;2225;53.568;13.266;2022-10-22T17:26:22;19.60;92.90
4425;DHT22;2225;53.568;13.266;2022-10-22T17:28:52;19.50;92.90
4425;DHT22;2225;53.568;13.266;2022-10-22T17:31:24;19.50;93.00
4425;DHT22;2225;53.568;13.266;2022-10-22T17:33:58;19.40;93.10
4425;DHT22;2225;53.568;13.266;2022-10-22T17:36:26;19.40;93.10
4425;DHT22;2225;53.568;13.266;2022-10-22T17:39:00;19.30;93.20